createdAt,value
2016-09-28T00:00:16.024Z,1078.85
2016-09-28T00:01:16.017Z,1078.38
2016-09-28T00:02:16.028Z,1078.18
2016-09-28T00:03:16.044Z,1077.73
2016-09-28T00:04:16.016Z,1077.43
2016-09-28T00:05:16.007Z,1076.97
2016-09-28T00:06:16.011Z,1076.69
2016-09-28T00:07:16.005Z,1076.5
2016-09-28T00:08:16.020Z,1076.48
2016-09-28T00:09:16.032Z,1076.24
2016-09-28T00:10:16.024Z,1075.89
2016-09-28T00:11:16.017Z,1076.22
2016-09-28T00:12:16.006Z,1076.03
2016-09-28T00:13:16.042Z,1075.86
2016-09-28T00:14:16.018Z,1075.72
2016-09-28T00:15:16.027Z,1075.88
2016-09-28T00:16:16.049Z,1076.04
2016-09-28T00:17:16.040Z,1075.77
2016-09-28T00:18:16.046Z,1075.89
2016-09-28T00:19:16.026Z,1076.06
2016-09-28T00:20:16.037Z,1076.43
2016-09-28T00:21:16.029Z,1076.87
2016-09-28T00:22:16.034Z,1077.43
2016-09-28T00:23:16.041Z,1078.18
2016-09-28T00:24:16.034Z,1079.29
2016-09-28T00:25:16.050Z,1080.18
2016-09-28T00:26:16.040Z,1081.22
2016-09-28T00:27:16.028Z,1082.32
2016-09-28T00:28:16.040Z,1083.35
2016-09-28T00:29:16.065Z,1084.38
2016-09-28T00:30:16.027Z,1085.91
2016-09-28T00:31:16.025Z,1086.85
2016-09-28T00:32:16.043Z,1088.21
2016-09-28T00:33:16.046Z,1089.34
2016-09-28T00:34:16.030Z,1090.28
2016-09-28T00:35:16.034Z,1091.65
2016-09-28T00:36:16.028Z,1092.45
2016-09-28T00:37:16.036Z,1093.53
2016-09-28T00:38:16.053Z,1094.49
2016-09-28T00:39:16.041Z,1095.54
2016-09-28T00:40:16.043Z,1096.22
2016-09-28T00:41:16.060Z,1096.56
2016-09-28T00:42:16.058Z,1097.61
2016-09-28T00:43:16.056Z,1097.65
2016-09-28T00:44:16.046Z,1098.05
2016-09-28T00:45:16.054Z,1098.39
2016-09-28T00:46:16.052Z,1098.58
2016-09-28T00:47:16.047Z,1098.69
2016-09-28T00:48:16.075Z,1098.79
2016-09-28T00:49:16.042Z,1098.98
2016-09-28T00:50:16.044Z,1098.96
2016-09-28T00:51:16.036Z,1098.77
2016-09-28T00:52:16.060Z,1098.82
2016-09-28T00:53:16.065Z,1098.67
2016-09-28T00:54:16.043Z,1098.92
2016-09-28T00:55:16.049Z,1098.98
2016-09-28T00:56:16.043Z,1099.47
2016-09-28T00:57:16.049Z,1099.5
2016-09-28T00:58:16.069Z,1099.65
2016-09-28T00:59:16.053Z,1099.91
2016-09-28T01:00:16.052Z,1100.25
2016-09-28T01:01:16.045Z,1100.67
2016-09-28T01:02:16.049Z,1100.95
2016-09-28T01:03:16.077Z,1101.18
2016-09-28T01:04:16.056Z,1101.48
2016-09-28T01:05:16.069Z,1101.43
2016-09-28T01:06:16.082Z,1101.62
2016-09-28T01:07:16.073Z,1101.61
2016-09-28T01:08:16.082Z,1101.53
2016-09-28T01:09:16.071Z,1101.52
2016-09-28T01:10:16.076Z,1101.65
2016-09-28T01:11:16.071Z,1101.66
2016-09-28T01:12:16.064Z,1102.08
2016-09-28T01:13:16.086Z,1101.99
2016-09-28T01:14:16.078Z,1102.36
2016-09-28T01:15:16.073Z,1102.57
2016-09-28T01:16:16.075Z,1102.89
2016-09-28T01:17:16.071Z,1103.19
2016-09-28T01:18:16.084Z,1103.75
2016-09-28T01:19:16.070Z,1104.08
2016-09-28T01:20:16.061Z,1104.31
2016-09-28T01:21:16.071Z,1104.9
2016-09-28T01:22:16.079Z,1105.5
2016-09-28T01:23:16.089Z,1105.93
2016-09-28T01:24:16.101Z,1106.87
2016-09-28T01:25:16.077Z,1107.7
2016-09-28T01:26:16.069Z,1108.41
2016-09-28T01:27:16.091Z,1109.22
2016-09-28T01:28:16.067Z,1110.11
2016-09-28T01:29:16.089Z,1110.66
2016-09-28T01:30:16.079Z,1111.14
2016-09-28T01:31:16.076Z,1112.27
2016-09-28T01:32:16.083Z,1112.93
2016-09-28T01:33:16.085Z,1113.86
2016-09-28T01:34:16.111Z,1114.77
2016-09-28T01:35:16.082Z,1115.16
2016-09-28T01:36:16.078Z,1116.23
2016-09-28T01:37:16.090Z,1116.67
2016-09-28T01:38:16.098Z,1117.49
2016-09-28T01:39:16.104Z,1118.1
2016-09-28T01:40:16.098Z,1118.8
2016-09-28T01:41:16.085Z,1119.67
2016-09-28T01:42:16.095Z,1120.37
2016-09-28T01:43:16.094Z,1120.83
2016-09-28T01:44:16.091Z,1121.57
2016-09-28T01:45:16.110Z,1122.3
2016-09-28T01:46:16.091Z,1122.59
2016-09-28T01:47:16.095Z,1123.25
2016-09-28T01:48:16.089Z,1123.92
2016-09-28T01:49:16.096Z,1124.37
2016-09-28T01:50:16.117Z,1124.95
2016-09-28T01:51:16.093Z,1125.62
2016-09-28T01:52:16.095Z,1125.92
2016-09-28T01:53:16.098Z,1126.37
2016-09-28T01:54:16.100Z,1126.65
2016-09-28T01:55:16.109Z,1126.99
2016-09-28T01:56:16.144Z,1127.42
2016-09-28T01:57:16.098Z,1127.87
2016-09-28T01:58:16.099Z,1127.93
2016-09-28T01:59:16.117Z,1128.2
2016-09-28T02:00:16.110Z,1128.6
2016-09-28T02:01:16.122Z,1128.8
2016-09-28T02:02:16.110Z,1129.24
2016-09-28T02:03:16.097Z,1129.38
2016-09-28T02:04:16.106Z,1129.47
2016-09-28T02:05:16.129Z,1129.65
2016-09-28T02:06:16.139Z,1129.76
2016-09-28T02:07:16.131Z,1130.1
2016-09-28T02:08:16.113Z,1130.34
2016-09-28T02:09:16.122Z,1130.32
2016-09-28T02:10:16.111Z,1130.54
2016-09-28T02:11:16.139Z,1130.62
2016-09-28T02:12:16.116Z,1130.75
2016-09-28T02:13:16.124Z,1130.68
2016-09-28T02:14:16.121Z,1130.73
2016-09-28T02:15:16.117Z,1130.7
2016-09-28T02:16:16.129Z,1130.79
2016-09-28T02:17:16.143Z,1130.59
2016-09-28T02:18:16.131Z,1130.25
2016-09-28T02:19:16.118Z,1130.36
2016-09-28T02:20:16.112Z,1130.31
2016-09-28T02:21:16.118Z,1130.31
2016-09-28T02:22:16.138Z,1130.23
2016-09-28T02:23:16.145Z,1130.44
2016-09-28T02:24:16.153Z,1130.53
2016-09-28T02:25:16.138Z,1130.59
2016-09-28T02:26:16.132Z,1130.93
2016-09-28T02:27:16.163Z,1131.13
2016-09-28T02:28:16.133Z,1131.11
2016-09-28T02:29:16.138Z,1131.16
2016-09-28T02:30:16.138Z,1131.42
2016-09-28T02:31:16.131Z,1131.31
2016-09-28T02:32:16.144Z,1131.54
2016-09-28T02:33:16.143Z,1131.07
2016-09-28T02:34:16.118Z,1131.1
2016-09-28T02:35:16.145Z,1130.51
2016-09-28T02:36:16.164Z,1130.34
2016-09-28T02:37:16.147Z,1129.85
2016-09-28T02:38:16.136Z,1129.48
2016-09-28T02:39:16.147Z,1128.81
2016-09-28T02:40:16.145Z,1128.09
2016-09-28T02:41:16.141Z,1127.41
2016-09-28T02:42:16.148Z,1126.91
2016-09-28T02:43:16.154Z,1126.33
2016-09-28T02:44:16.153Z,1125.46
2016-09-28T02:45:16.144Z,1124.83
2016-09-28T02:46:16.174Z,1124.21
2016-09-28T02:47:16.183Z,1123.63
2016-09-28T02:48:16.154Z,1123.1
2016-09-28T02:49:16.155Z,1122.8
2016-09-28T02:50:16.160Z,1122.22
2016-09-28T02:51:16.161Z,1122.06
2016-09-28T02:52:16.173Z,1121.5
2016-09-28T02:53:16.157Z,1121.46
2016-09-28T02:54:16.157Z,1121.43
2016-09-28T02:55:16.158Z,1121.1
2016-09-28T02:56:16.161Z,1121.15
2016-09-28T02:57:16.158Z,1121.1
2016-09-28T02:58:16.162Z,1121.34
2016-09-28T02:59:16.158Z,1121.51
2016-09-28T03:00:16.157Z,1121.88
2016-09-28T03:01:16.170Z,1122.11
2016-09-28T03:02:16.158Z,1122.9
2016-09-28T03:03:16.170Z,1123.05
2016-09-28T03:04:16.163Z,1123.36
2016-09-28T03:05:16.163Z,1123.57
2016-09-28T03:06:16.179Z,1123.4
2016-09-28T03:07:16.169Z,1123.66
2016-09-28T03:08:16.175Z,1123.79
2016-09-28T03:09:16.165Z,1123.82
2016-09-28T03:10:16.160Z,1123.74
2016-09-28T03:11:16.165Z,1123.42
2016-09-28T03:12:16.164Z,1123.51
2016-09-28T03:13:16.199Z,1123.29
2016-09-28T03:14:16.174Z,1122.88
2016-09-28T03:15:16.175Z,1122.57
2016-09-28T03:16:16.184Z,1122.15
2016-09-28T03:17:16.193Z,1121.92
2016-09-28T03:18:16.200Z,1121.74
2016-09-28T03:19:16.184Z,1121.32
2016-09-28T03:20:16.174Z,1120.8
2016-09-28T03:21:16.189Z,1120.73
2016-09-28T03:22:16.183Z,1120.35
2016-09-28T03:23:16.205Z,1120.19
2016-09-28T03:24:16.189Z,1119.68
2016-09-28T03:25:16.204Z,1119.56
2016-09-28T03:26:16.185Z,1119.14
2016-09-28T03:27:16.178Z,1118.89
2016-09-28T03:28:16.195Z,1118.64
2016-09-28T03:29:16.182Z,1118.36
2016-09-28T03:30:16.200Z,1118.35
2016-09-28T03:31:16.181Z,1118.41
2016-09-28T03:32:16.199Z,1118.23
2016-09-28T03:33:16.208Z,1118
2016-09-28T03:34:16.214Z,1118.04
2016-09-28T03:35:16.220Z,1117.8
2016-09-28T03:36:16.197Z,1117.56
2016-09-28T03:37:16.198Z,1117.39
2016-09-28T03:38:16.184Z,1117.28
2016-09-28T03:39:16.201Z,1116.88
2016-09-28T03:40:16.190Z,1117.09
2016-09-28T03:41:16.179Z,1116.77
2016-09-28T03:42:16.213Z,1116.69
2016-09-28T03:43:16.194Z,1116.56
2016-09-28T03:44:16.221Z,1116.3
2016-09-28T03:45:16.215Z,1116.23
2016-09-28T03:46:16.208Z,1116.25
2016-09-28T03:47:16.203Z,1116.12
2016-09-28T03:48:16.200Z,1116.26
2016-09-28T03:49:16.227Z,1116.06
2016-09-28T03:50:16.221Z,1116.23
2016-09-28T03:51:16.211Z,1116.33
2016-09-28T03:52:16.207Z,1116
2016-09-28T03:53:16.215Z,1115.87
2016-09-28T03:54:16.223Z,1116.01
2016-09-28T03:55:16.232Z,1116.05
2016-09-28T03:56:16.227Z,1116.28
2016-09-28T03:57:16.204Z,1116.27
2016-09-28T03:58:16.204Z,1116.08
2016-09-28T03:59:16.224Z,1116.47
2016-09-28T04:00:16.210Z,1116.53
2016-09-28T04:01:16.206Z,1116.41
2016-09-28T04:02:16.218Z,1116.44
2016-09-28T04:03:16.219Z,1116.29
2016-09-28T04:04:16.232Z,1116.22
2016-09-28T04:05:16.218Z,1116.48
2016-09-28T04:06:16.203Z,1116.47
2016-09-28T04:07:16.216Z,1116.77
2016-09-28T04:08:16.231Z,1116.7
2016-09-28T04:09:16.239Z,1116.9
2016-09-28T04:10:19.215Z,1116.87
2016-09-28T04:11:18.968Z,1117.02
2016-09-28T04:12:18.811Z,1116.95
2016-09-28T04:13:18.760Z,1117.02
2016-09-28T04:14:16.245Z,1117.05
2016-09-28T04:15:16.233Z,1117.24
2016-09-28T04:16:18.771Z,1117.03
2016-09-28T04:17:18.896Z,1116.7
2016-09-28T04:18:18.901Z,1116.79
2016-09-28T04:19:18.754Z,1116.75
2016-09-28T04:20:19.163Z,1116.64
2016-09-28T04:21:18.868Z,1116.8
2016-09-28T04:22:16.440Z,1116.88
2016-09-28T04:23:16.547Z,1116.87
2016-09-28T04:24:16.247Z,1117.04
2016-09-28T04:25:16.252Z,1117.05
2016-09-28T04:26:16.239Z,1117.26
2016-09-28T04:27:16.229Z,1117.31
2016-09-28T04:28:16.247Z,1117.36
2016-09-28T04:29:16.235Z,1117.4
2016-09-28T04:30:17.238Z,1117.76
2016-09-28T04:31:16.250Z,1118.08
2016-09-28T04:32:16.240Z,1118.57
2016-09-28T04:33:16.262Z,1119.3
2016-09-28T04:34:16.248Z,1119.77
2016-09-28T04:35:16.263Z,1120.24
2016-09-28T04:36:16.239Z,1120.6
2016-09-28T04:37:16.230Z,1121.31
2016-09-28T04:38:16.237Z,1121.57
2016-09-28T04:39:16.245Z,1122.12
2016-09-28T04:40:16.485Z,1122.86
2016-09-28T04:41:16.243Z,1123.71
2016-09-28T04:42:16.277Z,1124.23
2016-09-28T04:43:16.242Z,1125.09
2016-09-28T04:44:16.249Z,1125.71
2016-09-28T04:45:16.266Z,1126.22
2016-09-28T04:46:16.254Z,1127.2
2016-09-28T04:47:16.236Z,1127.73
2016-09-28T04:48:16.244Z,1128.54
2016-09-28T04:49:16.250Z,1129.34
2016-09-28T04:50:16.270Z,1130.15
2016-09-28T04:51:16.274Z,1130.93
2016-09-28T04:52:16.255Z,1131.53
2016-09-28T04:53:16.265Z,1132.28
2016-09-28T04:54:16.269Z,1133.03
2016-09-28T04:55:17.246Z,1133.66
2016-09-28T04:56:16.253Z,1134.37
2016-09-28T04:57:16.259Z,1135.11
2016-09-28T04:58:16.259Z,1135.86
2016-09-28T04:59:16.275Z,1136.46
2016-09-28T05:00:16.256Z,1137.2
2016-09-28T05:01:16.281Z,1137.8
2016-09-28T05:02:16.276Z,1138.46
2016-09-28T05:03:16.284Z,1138.83
2016-09-28T05:04:16.269Z,1139.69
2016-09-28T05:05:16.265Z,1140.27
2016-09-28T05:06:16.284Z,1140.59
2016-09-28T05:07:16.266Z,1141.33
2016-09-28T05:08:16.277Z,1141.87
2016-09-28T05:09:16.264Z,1142.42
2016-09-28T05:10:16.273Z,1142.74
2016-09-28T05:11:16.293Z,1143.22
2016-09-28T05:12:16.290Z,1143.27
2016-09-28T05:13:16.284Z,1143.79
2016-09-28T05:14:16.268Z,1144.24
2016-09-28T05:15:16.269Z,1144.65
2016-09-28T05:16:16.287Z,1145.14
2016-09-28T05:17:16.270Z,1145.26
2016-09-28T05:18:16.288Z,1145.63
2016-09-28T05:19:16.284Z,1145.85
2016-09-28T05:20:16.278Z,1146.12
2016-09-28T05:21:16.299Z,1146.41
2016-09-28T05:22:16.285Z,1146.56
2016-09-28T05:23:16.283Z,1146.89
2016-09-28T05:24:16.286Z,1146.97
2016-09-28T05:25:16.276Z,1147.34
2016-09-28T05:26:16.296Z,1147.58
2016-09-28T05:27:16.303Z,1147.82
2016-09-28T05:28:16.285Z,1147.93
2016-09-28T05:29:16.286Z,1148.38
2016-09-28T05:30:16.290Z,1148.65
2016-09-28T05:31:16.323Z,1149.08
2016-09-28T05:32:16.305Z,1149.24
2016-09-28T05:33:16.291Z,1149.59
2016-09-28T05:34:16.290Z,1149.77
2016-09-28T05:35:16.293Z,1149.8
2016-09-28T05:36:16.307Z,1150.14
2016-09-28T05:37:16.307Z,1150.17
2016-09-28T05:38:16.328Z,1150.35
2016-09-28T05:39:16.296Z,1150.46
2016-09-28T05:40:16.318Z,1150.53
2016-09-28T05:41:16.315Z,1150.48
2016-09-28T05:42:16.305Z,1150.48
2016-09-28T05:43:16.326Z,1150.61
2016-09-28T05:44:16.316Z,1150.55
2016-09-28T05:45:16.315Z,1150.81
2016-09-28T05:46:16.348Z,1150.8
2016-09-28T05:47:16.318Z,1150.97
2016-09-28T05:48:16.329Z,1151.15
2016-09-28T05:49:16.324Z,1151.43
2016-09-28T05:50:16.309Z,1151.55
2016-09-28T05:51:16.344Z,1151.95
2016-09-28T05:52:16.314Z,1152.13
2016-09-28T05:53:16.325Z,1152.57
2016-09-28T05:54:16.338Z,1152.58
2016-09-28T05:55:16.305Z,1152.98
2016-09-28T05:56:16.322Z,1153.26
2016-09-28T05:57:16.314Z,1153.42
2016-09-28T05:58:16.318Z,1153.83
2016-09-28T05:59:16.313Z,1153.82
2016-09-28T06:00:16.310Z,1154.05
2016-09-28T06:01:16.324Z,1154.2
2016-09-28T06:02:16.347Z,1154.53
2016-09-28T06:03:16.306Z,1154.73
2016-09-28T06:04:16.315Z,1155.13
2016-09-28T06:05:16.332Z,1155.31
2016-09-28T06:06:16.326Z,1155.79
2016-09-28T06:07:16.338Z,1156.25
2016-09-28T06:08:16.336Z,1156.64
2016-09-28T06:09:16.323Z,1157.2
2016-09-28T06:10:16.322Z,1157.73
2016-09-28T06:11:16.338Z,1158.22
2016-09-28T06:12:16.344Z,1158.72
2016-09-28T06:13:16.342Z,1159.34
2016-09-28T06:14:16.327Z,1160.08
2016-09-28T06:15:16.336Z,1160.97
2016-09-28T06:16:16.332Z,1161.59
2016-09-28T06:17:16.347Z,1161.74
2016-09-28T06:18:16.347Z,1162.14
2016-09-28T06:19:16.334Z,1162.38
2016-09-28T06:20:16.376Z,1162.56
2016-09-28T06:21:16.331Z,1162.6
2016-09-28T06:22:16.357Z,1162.65
2016-09-28T06:23:16.347Z,1162.55
2016-09-28T06:24:16.339Z,1162.58
2016-09-28T06:25:16.342Z,1162.59
2016-09-28T06:26:16.365Z,1162.52
2016-09-28T06:27:16.340Z,1162.51
2016-09-28T06:28:16.347Z,1162.57
2016-09-28T06:29:16.347Z,1162.67
2016-09-28T06:30:16.339Z,1162.8
2016-09-28T06:31:16.336Z,1162.82
2016-09-28T06:32:16.353Z,1162.77
2016-09-28T06:33:16.382Z,1162.77
2016-09-28T06:34:16.350Z,1162.89
2016-09-28T06:35:16.343Z,1162.87
2016-09-28T06:36:16.395Z,1162.84
2016-09-28T06:37:16.358Z,1162.81
2016-09-28T06:38:16.441Z,1162.75
2016-09-28T06:39:16.356Z,1162.71
2016-09-28T06:40:16.356Z,1162.8
2016-09-28T06:41:16.357Z,1162.89
2016-09-28T06:42:16.346Z,1163.08
2016-09-28T06:43:16.390Z,1163.14
2016-09-28T06:44:16.345Z,1163.36
2016-09-28T06:45:16.373Z,1163.7
2016-09-28T06:46:16.364Z,1163.91
2016-09-28T06:47:16.357Z,1163.95
2016-09-28T06:48:16.391Z,1164.17
2016-09-28T06:49:16.393Z,1164.36
2016-09-28T06:50:16.356Z,1164.62
2016-09-28T06:51:16.362Z,1165.14
2016-09-28T06:52:16.369Z,1165.68
2016-09-28T06:53:16.378Z,1165.95
2016-09-28T06:54:16.368Z,1166.26
2016-09-28T06:55:16.365Z,1166.48
2016-09-28T06:56:16.356Z,1166.6
2016-09-28T06:57:16.363Z,1166.67
2016-09-28T06:58:16.391Z,1166.68
2016-09-28T06:59:16.366Z,1166.66
2016-09-28T07:00:16.369Z,1166.64
2016-09-28T07:01:16.494Z,1166.57
2016-09-28T07:02:16.424Z,1166.65
2016-09-28T07:03:16.385Z,1166.55
2016-09-28T07:04:16.386Z,1166.63
2016-09-28T07:05:16.370Z,1166.69
2016-09-28T07:06:16.376Z,1166.58
2016-09-28T07:07:16.408Z,1166.65
2016-09-28T07:08:16.385Z,1166.76
2016-09-28T07:09:16.391Z,1167
2016-09-28T07:10:16.378Z,1167.1
2016-09-28T07:11:16.383Z,1167.15
2016-09-28T07:12:16.383Z,1167.11
2016-09-28T07:13:16.396Z,1167.15
2016-09-28T07:14:16.380Z,1167.19
2016-09-28T07:15:16.398Z,1167.45
2016-09-28T07:16:16.399Z,1167.47
2016-09-28T07:17:16.426Z,1167.68
2016-09-28T07:18:16.420Z,1167.75
2016-09-28T07:19:16.412Z,1167.79
2016-09-28T07:20:16.389Z,1167.94
2016-09-28T07:21:16.392Z,1168.05
2016-09-28T07:22:16.412Z,1168.07
2016-09-28T07:23:16.393Z,1168.15
2016-09-28T07:24:16.411Z,1168.28
2016-09-28T07:25:16.392Z,1168.33
2016-09-28T07:26:16.410Z,1168.38
2016-09-28T07:27:16.396Z,1168.46
2016-09-28T07:28:16.414Z,1168.46
2016-09-28T07:29:16.427Z,1168.49
2016-09-28T07:30:16.411Z,1168.49
2016-09-28T07:31:16.414Z,1168.42
2016-09-28T07:32:16.418Z,1168.39
2016-09-28T07:33:16.405Z,1168.34
2016-09-28T07:34:16.425Z,1168.19
2016-09-28T07:35:16.407Z,1168.14
2016-09-28T07:36:16.406Z,1168.19
2016-09-28T07:37:16.412Z,1168.14
2016-09-28T07:38:16.421Z,1168.12
2016-09-28T07:39:16.440Z,1168.03
2016-09-28T07:40:16.432Z,1167.92
2016-09-28T07:41:16.424Z,1167.95
2016-09-28T07:42:16.421Z,1167.88
2016-09-28T07:43:16.417Z,1167.93
2016-09-28T07:44:16.449Z,1167.87
2016-09-28T07:45:16.416Z,1167.94
2016-09-28T07:46:16.425Z,1168.05
2016-09-28T07:47:16.413Z,1168.18
2016-09-28T07:48:16.427Z,1168.16
2016-09-28T07:49:16.443Z,1168.11
2016-09-28T07:50:16.422Z,1168.1
2016-09-28T07:51:16.420Z,1168.03
2016-09-28T07:52:16.443Z,1168.09
2016-09-28T07:53:16.507Z,1168
2016-09-28T07:54:16.522Z,1167.9
2016-09-28T07:55:16.433Z,1167.98
2016-09-28T07:56:16.428Z,1168.01
2016-09-28T07:57:16.446Z,1167.98
2016-09-28T07:58:16.424Z,1168.19
2016-09-28T07:59:16.445Z,1168.2
2016-09-28T08:00:16.416Z,1168.03
2016-09-28T08:01:16.440Z,1167.89
2016-09-28T08:02:16.457Z,1167.68
2016-09-28T08:03:16.439Z,1167.31
2016-09-28T08:04:16.476Z,1167.14
2016-09-28T08:05:16.444Z,1166.98
2016-09-28T08:06:16.441Z,1166.94
2016-09-28T08:07:16.435Z,1166.7
2016-09-28T08:08:16.434Z,1166.54
2016-09-28T08:09:16.463Z,1166.57
2016-09-28T08:10:16.443Z,1166.52
2016-09-28T08:11:16.443Z,1166.49
2016-09-28T08:12:16.449Z,1166.52
2016-09-28T08:13:16.438Z,1166.41
2016-09-28T08:14:16.453Z,1166.24
2016-09-28T08:15:16.451Z,1165.99
2016-09-28T08:16:16.434Z,1165.76
2016-09-28T08:17:16.470Z,1165.68
2016-09-28T08:18:16.445Z,1165.88
2016-09-28T08:19:16.468Z,1166.19
2016-09-28T08:20:16.458Z,1166.51
2016-09-28T08:21:16.462Z,1166.78
2016-09-28T08:22:16.442Z,1166.92
2016-09-28T08:23:16.452Z,1167.08
2016-09-28T08:24:16.470Z,1167.03
2016-09-28T08:25:16.473Z,1166.99
2016-09-28T08:26:16.468Z,1166.78
2016-09-28T08:27:16.451Z,1166.75
2016-09-28T08:28:16.456Z,1166.74
2016-09-28T08:29:16.480Z,1166.73
2016-09-28T08:30:16.490Z,1166.45
2016-09-28T08:31:16.458Z,1166.09
2016-09-28T08:32:16.467Z,1165.38
2016-09-28T08:33:16.469Z,1164.44
2016-09-28T08:34:16.462Z,1163.15
2016-09-28T08:35:16.482Z,1161.74
2016-09-28T08:36:16.469Z,1160.02
2016-09-28T08:37:16.460Z,1158.15
2016-09-28T08:38:16.457Z,1156.47
2016-09-28T08:39:16.475Z,1155.25
2016-09-28T08:40:16.507Z,1154.1
2016-09-28T08:41:16.479Z,1152.87
2016-09-28T08:42:16.467Z,1152.35
2016-09-28T08:43:16.464Z,1152.45
2016-09-28T08:44:16.483Z,1152.59
2016-09-28T08:45:16.499Z,1153.45
2016-09-28T08:46:16.505Z,1154.53
2016-09-28T08:47:16.497Z,1155.48
2016-09-28T08:48:16.544Z,1156.31
2016-09-28T08:49:16.494Z,1157.21
2016-09-28T08:50:16.505Z,1157.95
2016-09-28T08:51:16.481Z,1158.37
2016-09-28T08:52:16.487Z,1158.99
2016-09-28T08:53:16.497Z,1158.82
2016-09-28T08:54:16.486Z,1158.63
2016-09-28T08:55:16.506Z,1158.23
2016-09-28T08:56:16.499Z,1157.64
2016-09-28T08:57:16.490Z,1157.55
2016-09-28T08:58:16.479Z,1157.44
2016-09-28T08:59:16.484Z,1157.53
2016-09-28T09:00:16.508Z,1157.34
2016-09-28T09:01:16.521Z,1157.22
2016-09-28T09:02:16.509Z,1157.35
2016-09-28T09:03:16.475Z,1157
2016-09-28T09:04:16.480Z,1157.01
2016-09-28T09:05:16.500Z,1156.91
2016-09-28T09:06:16.512Z,1156.86
2016-09-28T09:07:16.493Z,1157.08
2016-09-28T09:08:16.509Z,1157.56
2016-09-28T09:09:16.502Z,1157.9
2016-09-28T09:10:16.503Z,1158.25
2016-09-28T09:11:16.503Z,1158.68
2016-09-28T09:12:16.500Z,1158.63
2016-09-28T09:13:16.494Z,1158.53
2016-09-28T09:14:16.506Z,1158.18
2016-09-28T09:15:16.496Z,1157.75
2016-09-28T09:16:16.521Z,1157.37
2016-09-28T09:17:16.509Z,1156.68
2016-09-28T09:18:16.512Z,1156.13
2016-09-28T09:19:16.515Z,1155.04
2016-09-28T09:20:16.522Z,1153.67
2016-09-28T09:21:16.540Z,1152.16
2016-09-28T09:22:16.518Z,1150.34
2016-09-28T09:23:16.508Z,1148.41
2016-09-28T09:24:16.507Z,1146.05
2016-09-28T09:25:16.524Z,1143.5
2016-09-28T09:26:16.653Z,1140.42
2016-09-28T09:27:16.550Z,1137.34
2016-09-28T09:28:16.517Z,1133.93
2016-09-28T09:29:16.523Z,1131.91
2016-09-28T09:30:16.605Z,1129.88
2016-09-28T09:31:16.543Z,1128.7
2016-09-28T09:32:16.552Z,1128.52
2016-09-28T09:33:16.558Z,1129.31
2016-09-28T09:34:16.529Z,1130.11
2016-09-28T09:35:16.532Z,1130.68
2016-09-28T09:36:16.587Z,1130.92
2016-09-28T09:37:16.521Z,1130.75
2016-09-28T09:38:16.523Z,1130.73
2016-09-28T09:39:16.570Z,1130.03
2016-09-28T09:40:16.531Z,1128.89
2016-09-28T09:41:17.517Z,1127.99
2016-09-28T09:42:16.545Z,1128.24
2016-09-28T09:43:16.536Z,1129.24
2016-09-28T09:44:16.556Z,1130.06
2016-09-28T09:45:16.613Z,1129.65
2016-09-28T09:46:16.529Z,1129.85
2016-09-28T09:47:16.546Z,1129.44
2016-09-28T09:48:16.547Z,1129.67
2016-09-28T09:49:16.539Z,1129.38
2016-09-28T09:50:16.538Z,1128.78
2016-09-28T09:51:16.529Z,1127.87
2016-09-28T09:52:16.558Z,1126.5
2016-09-28T09:53:16.548Z,1125.19
2016-09-28T09:54:16.542Z,1124.48
2016-09-28T09:55:16.545Z,1123.72
2016-09-28T09:56:16.603Z,1122.94
2016-09-28T09:57:16.555Z,1121.9
2016-09-28T09:58:16.577Z,1121.24
2016-09-28T09:59:16.541Z,1121.09
2016-09-28T10:00:16.556Z,1120.08
2016-09-28T10:01:16.553Z,1119.82
2016-09-28T10:02:16.555Z,1120.58
2016-09-28T10:03:16.543Z,1121.46
2016-09-28T10:04:16.564Z,1121.7
2016-09-28T10:05:16.559Z,1121.73
2016-09-28T10:06:16.555Z,1121.84
2016-09-28T10:07:16.560Z,1121.76
2016-09-28T10:08:16.558Z,1121.47
2016-09-28T10:09:16.571Z,1121.54
2016-09-28T10:10:16.555Z,1122.06
2016-09-28T10:11:16.555Z,1122.69
2016-09-28T10:12:16.558Z,1123.42
2016-09-28T10:13:16.575Z,1124.13
2016-09-28T10:14:16.571Z,1125.9
2016-09-28T10:15:16.601Z,1127.23
2016-09-28T10:16:16.578Z,1128.49
2016-09-28T10:17:16.571Z,1130.34
2016-09-28T10:18:16.565Z,1130.87
2016-09-28T10:19:16.570Z,1130.87
2016-09-28T10:20:16.565Z,1130.77
2016-09-28T10:21:16.587Z,1130.64
2016-09-28T10:22:16.570Z,1130.75
2016-09-28T10:23:16.581Z,1131.97
2016-09-28T10:24:16.571Z,1132.57
2016-09-28T10:25:16.606Z,1133.59
2016-09-28T10:26:16.576Z,1135.7
2016-09-28T10:27:16.584Z,1137.75
2016-09-28T10:28:16.583Z,1139.8
2016-09-28T10:29:16.587Z,1141.22
2016-09-28T10:30:16.586Z,1142.32
2016-09-28T10:31:16.576Z,1143.01
2016-09-28T10:32:16.578Z,1142.38
2016-09-28T10:33:16.584Z,1142.48
2016-09-28T10:34:16.592Z,1142.22
2016-09-28T10:35:16.593Z,1142.4
2016-09-28T10:36:16.583Z,1141.82
2016-09-28T10:37:16.587Z,1141.41
2016-09-28T10:38:16.588Z,1139.85
2016-09-28T10:39:16.583Z,1138.56
2016-09-28T10:40:16.585Z,1138.83
2016-09-28T10:41:16.590Z,1137.34
2016-09-28T10:42:16.593Z,1136.88
2016-09-28T10:43:16.604Z,1136.71
2016-09-28T10:44:16.587Z,1136.18
2016-09-28T10:45:16.601Z,1135.76
2016-09-28T10:46:16.603Z,1136.45
2016-09-28T10:47:16.602Z,1137.17
2016-09-28T10:48:16.612Z,1137.72
2016-09-28T10:49:16.603Z,1138.45
2016-09-28T10:50:16.604Z,1139.34
2016-09-28T10:51:16.600Z,1140.43
2016-09-28T10:52:16.592Z,1141.14
2016-09-28T10:53:16.600Z,1141.63
2016-09-28T10:54:16.590Z,1141.13
2016-09-28T10:55:16.622Z,1140.5
2016-09-28T10:56:16.622Z,1139.56
2016-09-28T10:57:16.598Z,1139.54
2016-09-28T10:58:16.603Z,1139.25
2016-09-28T10:59:16.622Z,1138.65
2016-09-28T11:00:16.610Z,1138.05
2016-09-28T11:01:16.608Z,1137.6
2016-09-28T11:02:16.599Z,1137.16
2016-09-28T11:03:16.606Z,1137.14
2016-09-28T11:04:16.613Z,1136.85
2016-09-28T11:05:16.639Z,1136.56
2016-09-28T11:06:16.613Z,1135.9
2016-09-28T11:07:16.627Z,1134.43
2016-09-28T11:08:16.632Z,1133.66
2016-09-28T11:09:16.612Z,1133.41
2016-09-28T11:10:16.623Z,1132.46
2016-09-28T11:11:16.620Z,1130.99
2016-09-28T11:12:16.612Z,1130.27
2016-09-28T11:13:16.635Z,1129.03
2016-09-28T11:14:16.619Z,1127.99
2016-09-28T11:15:16.619Z,1126.67
2016-09-28T11:16:16.625Z,1126.13
2016-09-28T11:17:16.629Z,1125.69
2016-09-28T11:18:16.625Z,1124.97
2016-09-28T11:19:16.632Z,1124.16
2016-09-28T11:20:16.633Z,1123.24
2016-09-28T11:21:16.617Z,1122.28
2016-09-28T11:22:16.639Z,1121.24
2016-09-28T11:23:16.629Z,1120.04
2016-09-28T11:24:16.620Z,1118.38
2016-09-28T11:25:16.645Z,1117.03
2016-09-28T11:26:16.647Z,1115.89
2016-09-28T11:27:16.645Z,1115.77
2016-09-28T11:28:16.645Z,1115.98
2016-09-28T11:29:16.637Z,1116.12
2016-09-28T11:30:16.639Z,1115.91
2016-09-28T11:31:16.638Z,1115.41
2016-09-28T11:32:16.641Z,1114.71
2016-09-28T11:33:16.645Z,1114.03
2016-09-28T11:34:16.649Z,1113.47
2016-09-28T11:35:16.663Z,1111.96
2016-09-28T11:36:16.638Z,1110.57
2016-09-28T11:37:16.644Z,1108.74
2016-09-28T11:38:16.658Z,1107.11
2016-09-28T11:39:16.643Z,1105.3
2016-09-28T11:40:16.654Z,1104.06
2016-09-28T11:41:16.650Z,1103.02
2016-09-28T11:42:16.657Z,1102
2016-09-28T11:43:16.648Z,1100.5
2016-09-28T11:44:16.652Z,1099.91
2016-09-28T11:45:16.646Z,1099.54
2016-09-28T11:46:16.733Z,1100.07
2016-09-28T11:47:16.673Z,1100.97
2016-09-28T11:48:16.651Z,1101.93
2016-09-28T11:49:16.672Z,1102.69
2016-09-28T11:50:16.660Z,1102.48
2016-09-28T11:51:16.657Z,1102.13
2016-09-28T11:52:16.683Z,1100.61
2016-09-28T11:53:16.683Z,1100.07
2016-09-28T11:54:16.667Z,1099.15
2016-09-28T11:55:16.677Z,1098.32
2016-09-28T11:56:16.673Z,1097.66
2016-09-28T11:57:16.684Z,1097.16
2016-09-28T11:58:16.697Z,1096.61
2016-09-28T11:59:16.677Z,1096.8
2016-09-28T12:00:16.712Z,1097.35
2016-09-28T12:01:16.708Z,1097.34
2016-09-28T12:02:16.707Z,1096.69
2016-09-28T12:03:16.710Z,1096.47
2016-09-28T12:04:16.699Z,1095.74
2016-09-28T12:05:16.713Z,1094.86
2016-09-28T12:06:16.734Z,1093.9
2016-09-28T12:07:16.724Z,1092.97
2016-09-28T12:08:16.733Z,1091.32